Selected Aviation Weather Reports

Never base important decisions on this or any weather information obtained from a non-NWS site!

Last update: Oct 20, 2017, 9:29 am CDT

 

There are no active watches, warnings or advisories for the Mid-South area.

METAR for KATL, KDFW, KEWR, KLAX, KMEM & KORD

METAR is also known as Meteorological Terminal Aviation Routine Weather Report or Met eorological Aerodrome Report.

Final Testing in progress.

(09/9/17 - 4:31 pm)

My sincere thanks for your help!


2017/10/20 13:52 KATL 201352Z 29003KT 10SM FEW010 FEW250 17/09 A3030 RMK AO2 SLP256 FU FEW010 T01720089

KATL, Oct 20, 2017, 13:52Z
Hartsfield-Jackson Atlanta International Airport
Wind: 290° @ 3 kts
Visibility: 10 Statute miles
Clouds: Few @ 1,000 ft
Few @ 25,000 ft
Altimeter: 30.30 in/Hg
Sea Level Pressure: 1025.6 mb
Temperature: 62.96°F (17.2°C)
Dew Point: 48.02°F (8.9°C)
Additional Remarks: 
Few areas of Smoke @ 1,000 ft.

2017/10/20 13:53 KDFW 201353Z 00000KT 10SM FEW028 BKN070 BKN180 BKN250 19/15 A3008 RMK AO2 SLP181 T01940150

KDFW, Oct 20, 2017, 13:53Z
Dallas-Ft. Worth International Airport
Wind: Calm
Visibility: 10 Statute miles
Clouds: Few @ 2,800 ft
Broken @ 7,000 ft
Broken @ 18,000 ft
Broken @ 25,000 ft
Altimeter: 30.08 in/Hg
Sea Level Pressure: 1018.1 mb
Temperature: 66.92°F (19.4°C)
Dew Point: 59°F (15.0°C)

2017/10/20 13:51 KEWR 201351Z 30007KT 10SM FEW250 18/06 A3018 RMK AO2 SLP218 T01780056

KEWR, Oct 20, 2017, 13:51Z
Newark Liberty International Airport
Wind: 300° @ 7 kts
Visibility: 10 Statute miles
Clouds: Few @ 25,000 ft
Altimeter: 30.18 in/Hg
Sea Level Pressure: 1021.8 mb
Temperature: 64.04°F (17.8°C)
Dew Point: 42.08°F (5.6°C)

2017/10/20 13:53 KLAX 201353Z 26017KT 8SM FEW014 SCT025 BKN045 18/14 A2992 RMK AO2 SLP129 T01780144

KLAX, Oct 20, 2017, 13:53Z
Los Angeles International Airport
Wind: 260° @ 17 kts
Visibility: 8 Statute miles
Clouds: Few @ 1,400 ft
Scattered @ 2,500 ft
Broken @ 4,500 ft
Altimeter: 29.92 in/Hg
Sea Level Pressure: 1012.9 mb
Temperature: 64.04°F (17.8°C)
Dew Point: 57.92°F (14.4°C)

2017/10/20 13:54 KMEM 201354Z 09004KT 10SM BKN250 16/12 A3025 RMK AO2 SLP241 T01610122

KMEM, Oct 20, 2017, 13:54Z
Memphis International Airport
Wind: 090° @ 4 kts
Visibility: 10 Statute miles
Clouds: Broken @ 25,000 ft
Altimeter: 30.25 in/Hg
Sea Level Pressure: 1024.1 mb
Temperature: 60.98°F (16.1°C)
Dew Point: 53.96°F (12.2°C)

2017/10/20 13:51 KORD 201351Z 20005KT 10SM FEW250 17/10 A3017 RMK AO2 SLP216 T01670100 $

KORD, Oct 20, 2017, 13:51Z
Chicago O’Hare International Airport
Wind: 200° @ 5 kts
Visibility: 10 Statute miles
Clouds: Few @ 25,000 ft
Altimeter: 30.17 in/Hg
Sea Level Pressure: 1021.6 mb
Temperature: 62.06°F (16.7°C)
Dew Point: 50°F (10.0°C)
Additional Remarks: 
Maintenance Needed on the System.

Top of page